createdAt,value
2019-03-04T00:01:53.276Z,57.23
2019-03-04T00:04:26.463Z,58.42
2019-03-04T00:06:57.654Z,57.47
2019-03-04T00:09:31.185Z,56.20
2019-03-04T00:12:02.406Z,57.58
2019-03-04T00:14:36.164Z,57.03
2019-03-04T00:17:08.585Z,56.83
2019-03-04T00:19:41.356Z,57.18
2019-03-04T00:22:15.526Z,55.86
2019-03-04T00:24:48.486Z,55.87
2019-03-04T00:27:21.368Z,56.10
2019-03-04T00:29:54.401Z,56.48
2019-03-04T00:32:26.521Z,56.52
2019-03-04T00:34:59.503Z,57.76
2019-03-04T00:37:31.558Z,58.50
2019-03-04T00:40:09.991Z,59.21
2019-03-04T00:42:41.437Z,59.81
2019-03-04T00:45:14.548Z,60.35
2019-03-04T00:47:47.438Z,61.72
2019-03-04T00:50:20.548Z,61.44
2019-03-04T00:52:53.502Z,62.14
2019-03-04T00:55:27.401Z,62.20
2019-03-04T00:57:59.561Z,61.79
2019-03-04T01:00:31.946Z,63.61
2019-03-04T01:03:06.354Z,63.28
2019-03-04T01:05:38.663Z,63.14
2019-03-04T01:08:13.299Z,62.68
2019-03-04T01:10:44.674Z,62.13
2019-03-04T01:13:17.855Z,62.81
2019-03-04T01:15:52.439Z,63.93
2019-03-04T01:18:25.423Z,63.71
2019-03-04T01:20:59.258Z,63.75
2019-03-04T01:27:10.510Z,62.68
2019-03-04T01:29:41.934Z,61.52
2019-03-04T01:32:15.841Z,61.96
2019-03-04T01:34:49.967Z,61.82
2019-03-04T01:37:22.395Z,61.96
2019-03-04T01:39:54.970Z,60.60
2019-03-04T01:42:27.577Z,60.94
2019-03-04T01:45:01.578Z,60.74
2019-03-04T01:47:32.798Z,60.92
2019-03-04T01:50:09.158Z,61.58
2019-03-04T01:52:41.687Z,62.79
2019-03-04T01:55:15.731Z,62.29
2019-03-04T01:57:47.909Z,62.07
2019-03-04T02:00:21.624Z,61.75
2019-03-04T02:02:55.470Z,61.60
2019-03-04T02:05:27.455Z,60.45
2019-03-04T02:08:01.501Z,61.21
2019-03-04T02:10:33.881Z,59.43
2019-03-04T02:13:05.979Z,60.14
2019-03-04T02:15:38.929Z,58.63
2019-03-04T02:18:11.957Z,58.76
2019-03-04T02:20:45.322Z,58.16
2019-03-04T02:23:18.838Z,59.22
2019-03-04T02:26:11.991Z,60.83
2019-03-04T02:28:43.973Z,60.56
2019-03-04T02:31:17.961Z,60.76
2019-03-04T02:33:51.094Z,61.50
2019-03-04T02:36:24.068Z,62.25
2019-03-04T02:38:57.074Z,61.54
2019-03-04T02:41:30.250Z,62.11
2019-03-04T02:44:03.039Z,63.32
2019-03-04T02:46:37.851Z,64.01
2019-03-04T02:49:13.995Z,64.29
2019-03-04T02:51:48.263Z,64.31
2019-03-04T02:54:23.325Z,63.93
2019-03-04T02:56:57.023Z,63.81
2019-03-04T02:59:30.077Z,63.99
2019-03-04T03:02:04.750Z,64.26
2019-03-04T03:04:37.268Z,64.27
2019-03-04T03:07:10.505Z,64.16
2019-03-04T03:09:41.747Z,64.45
2019-03-04T03:12:15.141Z,64.55
2019-03-04T03:14:48.192Z,65.27
2019-03-04T03:17:21.447Z,65.52
2019-03-04T03:19:54.319Z,65.17
2019-03-04T03:22:27.231Z,64.72
2019-03-04T03:25:00.450Z,64.98
2019-03-04T03:27:33.293Z,65.56
2019-03-04T03:30:08.375Z,65.45
2019-03-04T03:32:40.587Z,66.55
2019-03-04T03:35:12.531Z,67.24
2019-03-04T03:37:45.258Z,67.05
2019-03-04T03:40:18.563Z,66.64
2019-03-04T03:42:51.368Z,66.24
2019-03-04T03:45:24.310Z,66.61
2019-03-04T03:47:57.369Z,66.76
2019-03-04T03:50:30.552Z,66.16
2019-03-04T03:53:01.736Z,67.68
2019-03-04T03:55:35.551Z,67.09
2019-03-04T03:58:09.482Z,67.18
2019-03-04T04:00:41.736Z,67.30
2019-03-04T04:03:13.967Z,68.13
2019-03-04T04:05:45.382Z,67.80
2019-03-04T04:08:18.499Z,67.66
2019-03-04T04:10:51.523Z,68.28
2019-03-04T04:13:23.547Z,68.81
2019-03-04T04:15:58.032Z,68.56
2019-03-04T04:18:29.622Z,68.98
2019-03-04T04:21:03.220Z,69.10
2019-03-04T04:23:35.597Z,68.06
2019-03-04T04:26:22.015Z,68.65
2019-03-04T04:29:13.442Z,69.27
2019-03-04T04:31:45.679Z,69.12
2019-03-04T04:34:23.175Z,68.92
2019-03-04T04:36:57.735Z,68.81
2019-03-04T04:39:29.724Z,68.77
2019-03-04T04:42:04.615Z,68.57
2019-03-04T04:44:36.799Z,68.38
2019-03-04T04:47:10.245Z,68.30
2019-03-04T04:49:41.974Z,68.40
2019-03-04T04:52:14.674Z,67.60
2019-03-04T04:54:50.544Z,67.72
2019-03-04T04:57:24.621Z,68.40
2019-03-04T04:59:57.696Z,68.57
2019-03-04T05:02:30.728Z,69.13
2019-03-04T05:05:03.811Z,69.36
2019-03-04T05:07:36.721Z,69.23
2019-03-04T05:10:12.339Z,69.13
2019-03-04T05:12:44.958Z,68.66
2019-03-04T05:15:18.470Z,68.57
2019-03-04T05:17:50.846Z,68.28
2019-03-04T05:20:23.776Z,69.04
2019-03-04T05:22:56.806Z,69.00
2019-03-04T05:25:29.798Z,69.12
2019-03-04T05:28:04.606Z,68.84
2019-03-04T05:30:35.776Z,68.61
2019-03-04T05:33:09.569Z,69.95
2019-03-04T05:35:41.737Z,69.34
2019-03-04T05:38:14.948Z,69.69
2019-03-04T05:40:49.196Z,69.89
2019-03-04T05:43:21.955Z,69.73
2019-03-04T05:45:55.715Z,69.59
2019-03-04T05:48:26.939Z,69.40
2019-03-04T05:50:59.909Z,69.34
2019-03-04T05:53:33.780Z,69.44
2019-03-04T05:56:07.650Z,69.23
2019-03-04T05:58:41.466Z,69.51
2019-03-04T06:01:23.802Z,70.00
2019-03-04T06:04:00.385Z,69.87
2019-03-04T06:07:01.417Z,69.53
2019-03-04T06:09:32.996Z,69.63
2019-03-04T06:12:07.045Z,69.11
2019-03-04T06:14:39.521Z,69.29
2019-03-04T06:17:12.261Z,69.48
2019-03-04T06:19:45.093Z,69.05
2019-03-04T06:22:18.076Z,69.71
2019-03-04T06:24:51.470Z,69.24
2019-03-04T06:27:24.251Z,70.70
2019-03-04T06:29:57.134Z,70.23
2019-03-04T06:32:30.029Z,69.89
2019-03-04T06:35:04.770Z,69.11
2019-03-04T06:37:36.121Z,69.09
2019-03-04T06:40:10.836Z,68.18
2019-03-04T06:42:42.421Z,69.16
2019-03-04T06:45:15.926Z,69.54
2019-03-04T06:47:48.139Z,69.06
2019-03-04T06:50:49.216Z,68.90
2019-03-04T06:53:29.906Z,68.62
2019-03-04T06:56:12.994Z,68.27
2019-03-04T06:58:48.263Z,68.44
2019-03-04T07:01:26.549Z,68.66
2019-03-04T07:04:13.172Z,69.02
2019-03-04T07:06:45.405Z,69.03
2019-03-04T07:09:20.646Z,69.33
2019-03-04T07:11:54.842Z,69.11
2019-03-04T07:14:27.394Z,68.67
2019-03-04T07:17:03.243Z,68.08
2019-03-04T07:19:38.087Z,67.81
2019-03-04T07:22:11.700Z,67.25
2019-03-04T07:24:44.475Z,66.96
2019-03-04T07:27:15.668Z,66.52
2019-03-04T07:29:48.396Z,66.28
2019-03-04T07:32:21.671Z,66.11
2019-03-04T07:34:56.507Z,65.85
2019-03-04T07:37:29.650Z,66.08
2019-03-04T07:40:03.732Z,65.83
2019-03-04T07:42:38.219Z,65.72
2019-03-04T07:45:14.304Z,65.55
2019-03-04T07:47:46.864Z,65.33
2019-03-04T07:50:18.469Z,65.01
2019-03-04T07:52:57.944Z,64.29
2019-03-04T07:55:31.255Z,63.98
2019-03-04T07:58:03.482Z,63.55
2019-03-04T08:00:36.485Z,63.38
2019-03-04T08:03:09.754Z,63.05
2019-03-04T08:05:43.771Z,62.95
2019-03-04T08:08:15.488Z,62.90
2019-03-04T08:11:40.704Z,63.23
2019-03-04T08:14:13.604Z,62.50
2019-03-04T08:16:47.729Z,63.88
2019-03-04T08:19:22.110Z,63.29
2019-03-04T08:21:55.061Z,63.11
2019-03-04T08:24:29.175Z,62.22
2019-03-04T08:27:00.677Z,61.29
2019-03-04T08:29:33.660Z,60.85
2019-03-04T08:32:06.867Z,59.85
2019-03-04T08:34:39.830Z,59.76
2019-03-04T08:37:12.839Z,60.17
2019-03-04T08:39:45.789Z,60.23
2019-03-04T08:42:18.596Z,58.73
2019-03-04T08:44:51.791Z,58.65
2019-03-04T08:47:24.760Z,57.45
2019-03-04T08:49:57.778Z,57.79
2019-03-04T08:52:31.854Z,55.05
2019-03-04T08:55:04.495Z,54.14
2019-03-04T08:57:35.703Z,54.78
2019-03-04T09:00:13.727Z,54.58
2019-03-04T09:02:45.903Z,54.68
2019-03-04T09:05:21.193Z,55.29
2019-03-04T09:07:54.865Z,54.15
2019-03-04T09:10:29.438Z,53.50
2019-03-04T09:13:02.906Z,53.39
2019-03-04T09:15:35.899Z,53.83
2019-03-04T09:18:13.047Z,54.59
2019-03-04T09:20:46.157Z,52.48
2019-03-04T09:23:19.979Z,52.55
2019-03-04T09:26:00.385Z,53.28
2019-03-04T09:28:33.941Z,53.87
2019-03-04T09:31:06.932Z,51.63
2019-03-04T09:33:39.956Z,51.01
2019-03-04T09:36:12.948Z,51.60
2019-03-04T09:38:46.038Z,49.49
2019-03-04T09:41:19.452Z,48.36
2019-03-04T09:43:53.116Z,44.86
2019-03-04T09:46:25.256Z,46.91
2019-03-04T09:48:58.169Z,48.55
2019-03-04T09:51:29.976Z,47.72
2019-03-04T09:54:04.185Z,44.76
2019-03-04T09:56:37.654Z,40.41
2019-03-04T09:59:09.305Z,41.61
2019-03-04T10:01:48.961Z,41.97
2019-03-04T10:04:56.066Z,42.29
2019-03-04T10:07:53.604Z,42.31
2019-03-04T10:11:07.974Z,40.17
2019-03-04T10:14:15.458Z,39.11
2019-03-04T10:17:34.651Z,38.59
2019-03-04T10:20:59.878Z,40.49
2019-03-04T10:24:03.523Z,40.78
2019-03-04T10:27:32.036Z,42.59
2019-03-04T10:30:28.739Z,41.01
2019-03-04T10:33:45.534Z,42.50
2019-03-04T10:36:56.840Z,42.73
2019-03-04T10:39:44.363Z,39.80
2019-03-04T10:43:09.555Z,39.02
2019-03-04T10:46:16.801Z,37.91
2019-03-04T10:48:49.092Z,38.51
2019-03-04T10:51:22.088Z,36.46
2019-03-04T10:53:54.210Z,36.76
2019-03-04T10:56:27.326Z,37.06
2019-03-04T10:58:59.573Z,37.80
2019-03-04T11:01:33.758Z,37.16
2019-03-04T11:04:06.375Z,37.28
2019-03-04T11:06:39.474Z,37.20
2019-03-04T11:09:12.273Z,35.83
2019-03-04T11:11:45.469Z,35.98
2019-03-04T11:14:18.970Z,35.54
2019-03-04T11:16:51.979Z,33.15
2019-03-04T11:19:25.727Z,33.81
2019-03-04T11:21:59.470Z,31.41
2019-03-04T11:24:31.643Z,30.65
2019-03-04T11:27:03.969Z,32.85
2019-03-04T11:29:36.645Z,32.47
2019-03-04T11:32:09.106Z,30.91
2019-03-04T11:34:42.797Z,30.51
2019-03-04T11:37:15.577Z,31.06
2019-03-04T11:39:59.317Z,32.20
2019-03-04T11:42:30.745Z,30.25
2019-03-04T11:45:03.703Z,30.51
2019-03-04T11:47:34.906Z,28.66
2019-03-04T11:50:09.837Z,29.13
2019-03-04T11:52:42.686Z,26.62
2019-03-04T11:55:15.791Z,24.53
2019-03-04T11:57:48.883Z,24.78
2019-03-04T12:00:39.865Z,24.30
2019-03-04T12:03:12.627Z,25.18
2019-03-04T12:05:45.608Z,25.08
2019-03-04T12:08:18.728Z,25.19
2019-03-04T12:10:52.099Z,23.37
2019-03-04T12:13:24.675Z,22.25
2019-03-04T12:15:57.736Z,23.85
2019-03-04T12:18:30.553Z,23.99
2019-03-04T12:21:01.857Z,25.28
2019-03-04T12:23:35.686Z,24.53
2019-03-04T12:26:09.640Z,24.62
2019-03-04T12:28:42.508Z,24.54
2019-03-04T12:31:15.820Z,23.70
2019-03-04T12:33:49.157Z,23.31
2019-03-04T12:36:21.777Z,24.53
2019-03-04T12:38:54.821Z,22.88
2019-03-04T12:41:28.022Z,23.09
2019-03-04T12:44:01.203Z,22.33
2019-03-04T12:46:32.686Z,22.70
2019-03-04T12:49:03.915Z,22.35
2019-03-04T12:51:36.940Z,22.70
2019-03-04T12:54:10.088Z,24.63
2019-03-04T12:56:42.650Z,22.99
2019-03-04T12:59:15.983Z,19.66
2019-03-04T13:01:50.585Z,21.51
2019-03-04T13:04:22.728Z,22.28
2019-03-04T13:06:56.720Z,21.40
2019-03-04T13:09:27.918Z,21.60
2019-03-04T13:11:59.123Z,22.79
2019-03-04T13:14:34.179Z,22.08
2019-03-04T13:17:06.401Z,21.67
2019-03-04T13:19:40.070Z,21.98
2019-03-04T13:22:14.074Z,21.15
2019-03-04T13:24:46.054Z,20.71
2019-03-04T13:27:23.744Z,22.08
2019-03-04T13:29:52.041Z,22.42
2019-03-04T13:32:25.037Z,22.48
2019-03-04T13:34:58.067Z,19.70
2019-03-04T13:37:31.194Z,20.34
2019-03-04T13:40:04.578Z,21.34
2019-03-04T13:42:37.149Z,20.69
2019-03-04T13:45:12.729Z,20.09
2019-03-04T13:47:46.128Z,19.79
2019-03-04T13:50:20.623Z,21.10
2019-03-04T13:52:52.153Z,20.98
2019-03-04T13:55:26.183Z,22.25
2019-03-04T13:57:58.636Z,23.68
2019-03-04T14:00:32.418Z,23.25
2019-03-04T14:03:05.912Z,24.19
2019-03-04T14:05:40.162Z,23.17
2019-03-04T14:08:13.527Z,24.14
2019-03-04T14:10:46.413Z,25.31
2019-03-04T14:13:18.876Z,25.96
2019-03-04T14:15:53.021Z,24.75
2019-03-04T14:18:25.295Z,26.21
2019-03-04T14:20:58.299Z,25.83
2019-03-04T14:23:31.261Z,26.88
2019-03-04T14:26:05.455Z,26.58
2019-03-04T14:28:38.477Z,27.50
2019-03-04T14:34:26.264Z,28.73
2019-03-04T14:36:57.794Z,29.23
2019-03-04T14:39:33.135Z,29.79
2019-03-04T14:42:09.185Z,29.63
2019-03-04T14:44:41.388Z,29.89
2019-03-04T14:47:15.352Z,30.57
2019-03-04T14:49:49.436Z,31.14
2019-03-04T14:52:23.992Z,32.15
2019-03-04T14:54:57.433Z,32.74
2019-03-04T14:57:31.592Z,32.99
2019-03-04T15:00:10.370Z,32.84
2019-03-04T15:02:45.214Z,34.11
2019-03-04T15:05:21.713Z,35.46
2019-03-04T15:07:56.889Z,35.38
2019-03-04T15:10:29.408Z,36.68
2019-03-04T15:13:03.165Z,37.21
2019-03-04T15:15:37.086Z,38.41
2019-03-04T15:18:11.529Z,38.96
2019-03-04T15:20:42.810Z,39.77
2019-03-04T15:23:28.541Z,40.01
2019-03-04T15:26:01.678Z,40.37
2019-03-04T15:28:34.650Z,41.20
2019-03-04T15:31:07.664Z,41.87
2019-03-04T15:33:41.571Z,41.88
2019-03-04T15:36:13.632Z,41.94
2019-03-04T15:38:46.832Z,42.59
2019-03-04T15:41:21.132Z,42.95
2019-03-04T15:43:52.746Z,43.63
2019-03-04T15:46:25.659Z,43.31
2019-03-04T15:48:56.868Z,43.67
2019-03-04T15:51:28.675Z,44.09
2019-03-04T15:54:00.070Z,43.74
2019-03-04T15:56:35.504Z,43.90
2019-03-04T15:59:07.974Z,44.51
2019-03-04T16:01:41.152Z,44.97
2019-03-04T16:04:23.000Z,46.81
2019-03-04T16:06:55.910Z,49.09
2019-03-04T16:09:27.182Z,50.83
2019-03-04T16:11:58.772Z,52.11
2019-03-04T16:14:33.034Z,54.89
2019-03-04T16:17:06.009Z,55.84
2019-03-04T16:19:39.961Z,57.61
2019-03-04T16:22:11.174Z,61.32
2019-03-04T16:24:43.466Z,63.92
2019-03-04T16:27:15.977Z,65.74
2019-03-04T16:29:47.893Z,67.04
2019-03-04T16:32:21.645Z,67.42
2019-03-04T16:34:55.824Z,67.21
2019-03-04T16:37:29.537Z,67.66
2019-03-04T16:40:00.828Z,68.46
2019-03-04T16:42:34.696Z,67.49
2019-03-04T16:48:32.354Z,68.53
2019-03-04T16:51:03.915Z,67.63
2019-03-04T16:53:39.555Z,68.75
2019-03-04T16:56:13.035Z,68.70
2019-03-04T16:58:46.029Z,68.11
2019-03-04T17:01:17.477Z,68.37
2019-03-04T17:03:48.926Z,68.95
2019-03-04T17:06:22.158Z,67.94
2019-03-04T17:08:54.938Z,68.83
2019-03-04T17:11:26.120Z,68.84
2019-03-04T17:13:58.060Z,67.46
2019-03-04T17:16:30.072Z,68.46
2019-03-04T17:19:04.217Z,68.29
2019-03-04T17:21:37.228Z,69.00
2019-03-04T17:24:10.196Z,68.56
2019-03-04T17:26:42.195Z,67.03
2019-03-04T17:29:16.168Z,66.97
2019-03-04T17:31:49.081Z,66.47
2019-03-04T17:34:58.498Z,66.33
2019-03-04T17:37:31.323Z,66.00
2019-03-04T17:40:04.139Z,65.35
2019-03-04T17:42:36.241Z,64.78
2019-03-04T17:45:12.318Z,64.69
2019-03-04T17:47:43.509Z,63.80
2019-03-04T17:50:18.409Z,63.64
2019-03-04T17:52:53.865Z,64.47
2019-03-04T17:58:50.165Z,64.26
2019-03-04T18:01:21.365Z,63.79
2019-03-04T18:03:55.299Z,63.80
2019-03-04T18:06:30.103Z,64.40
2019-03-04T18:09:05.330Z,64.03
2019-03-04T18:11:38.509Z,62.31
2019-03-04T18:14:10.604Z,63.70
2019-03-04T18:16:43.092Z,63.27
2019-03-04T18:19:17.184Z,63.97
2019-03-04T18:21:49.246Z,64.21
2019-03-04T18:24:23.767Z,63.68
2019-03-04T18:27:05.197Z,64.34
2019-03-04T18:30:01.102Z,63.16
2019-03-04T18:33:26.654Z,64.09
2019-03-04T18:36:20.551Z,64.18
2019-03-04T18:39:39.590Z,63.31
2019-03-04T18:42:49.013Z,63.13
2019-03-04T18:45:51.293Z,63.68
2019-03-04T18:48:57.288Z,63.10
2019-03-04T18:51:31.005Z,62.14
2019-03-04T18:54:07.864Z,62.06
2019-03-04T18:56:40.645Z,61.92
2019-03-04T18:59:13.681Z,62.05
2019-03-04T19:01:49.050Z,62.31
2019-03-04T19:04:25.056Z,60.80
2019-03-04T19:06:56.541Z,61.28
2019-03-04T19:09:28.605Z,61.51
2019-03-04T19:12:03.182Z,61.52
2019-03-04T19:14:36.237Z,62.53
2019-03-04T19:17:08.051Z,61.44
2019-03-04T19:19:41.640Z,60.71
2019-03-04T19:22:13.518Z,60.83
2019-03-04T19:24:46.754Z,60.53
2019-03-04T19:27:20.402Z,60.37
2019-03-04T19:29:52.077Z,61.01
2019-03-04T19:32:25.633Z,60.73
2019-03-04T19:34:58.903Z,60.34
2019-03-04T19:37:31.779Z,59.50
2019-03-04T19:40:06.262Z,58.54
2019-03-04T19:42:40.185Z,57.81
2019-03-04T19:45:14.849Z,57.27
2019-03-04T19:47:46.598Z,55.38
2019-03-04T19:50:19.961Z,55.54
2019-03-04T19:52:51.869Z,55.05
2019-03-04T19:55:25.918Z,54.08
2019-03-04T19:57:58.928Z,53.84
2019-03-04T20:00:32.861Z,54.21
2019-03-04T20:03:17.008Z,52.93
2019-03-04T20:05:49.937Z,52.42
2019-03-04T20:08:23.245Z,53.01
2019-03-04T20:10:54.776Z,53.14
2019-03-04T20:13:26.759Z,52.66
2019-03-04T20:15:59.992Z,51.79
2019-03-04T20:18:32.029Z,50.48
2019-03-04T20:21:04.877Z,50.36
2019-03-04T20:23:36.083Z,49.50
2019-03-04T20:26:08.015Z,49.73
2019-03-04T20:28:41.023Z,49.62
2019-03-04T20:31:14.084Z,50.41
2019-03-04T20:33:47.055Z,49.95
2019-03-04T20:36:19.945Z,50.44
2019-03-04T20:38:52.953Z,49.74
2019-03-04T20:41:26.176Z,49.72
2019-03-04T20:43:59.843Z,49.31
2019-03-04T20:46:32.060Z,50.33
2019-03-04T20:49:04.920Z,49.78
2019-03-04T20:51:38.246Z,50.23
2019-03-04T20:54:11.205Z,49.65
2019-03-04T20:56:43.165Z,49.94
2019-03-04T20:59:16.053Z,50.20
2019-03-04T21:01:51.608Z,49.75
2019-03-04T21:04:25.037Z,49.74
2019-03-04T21:07:00.621Z,50.77
2019-03-04T21:09:32.153Z,51.62
2019-03-04T21:12:05.623Z,52.77
2019-03-04T21:14:38.277Z,53.35
2019-03-04T21:17:12.302Z,53.59
2019-03-04T21:19:43.557Z,53.95
2019-03-04T21:22:16.140Z,54.17
2019-03-04T21:24:50.092Z,54.05
2019-03-04T21:27:23.152Z,54.00
2019-03-04T21:30:29.673Z,53.83
2019-03-04T21:33:12.479Z,53.59
2019-03-04T21:36:23.222Z,53.76
2019-03-04T21:38:58.237Z,54.26
2019-03-04T21:42:07.734Z,54.18
2019-03-04T21:45:10.428Z,54.47
2019-03-04T21:47:46.486Z,54.63
2019-03-04T21:50:24.158Z,55.54
2019-03-04T21:53:06.656Z,55.77
2019-03-04T21:55:46.992Z,55.99
2019-03-04T21:58:20.648Z,56.31
2019-03-04T22:01:00.005Z,57.35
2019-03-04T22:03:35.013Z,57.98
2019-03-04T22:06:07.654Z,58.56
2019-03-04T22:08:41.820Z,59.32
2019-03-04T22:11:13.608Z,60.27
2019-03-04T22:13:45.729Z,61.78
2019-03-04T22:16:17.731Z,62.17
2019-03-04T22:18:53.126Z,62.78
2019-03-04T22:21:24.539Z,64.53
2019-03-04T22:24:00.963Z,65.89
2019-03-04T22:26:34.419Z,67.31
2019-03-04T22:29:07.408Z,68.15
2019-03-04T22:31:41.431Z,68.89
2019-03-04T22:34:17.074Z,69.15
2019-03-04T22:36:51.166Z,70.20
2019-03-04T22:39:24.823Z,70.34
2019-03-04T22:41:58.195Z,69.33
2019-03-04T22:44:29.763Z,69.03
2019-03-04T22:47:02.708Z,68.57
2019-03-04T22:53:11.946Z,69.92
2019-03-04T22:55:43.291Z,71.53
2019-03-04T22:58:28.260Z,72.74
2019-03-04T23:01:41.329Z,75.17
2019-03-04T23:04:37.179Z,73.20
2019-03-04T23:07:22.426Z,73.96
2019-03-04T23:10:17.264Z,73.85
2019-03-04T23:12:53.926Z,71.93
2019-03-04T23:15:25.951Z,72.00
2019-03-04T23:17:58.743Z,72.45
2019-03-04T23:20:31.768Z,71.49
2019-03-04T23:23:04.669Z,72.16
2019-03-04T23:25:37.994Z,71.12
2019-03-04T23:28:11.845Z,70.79
2019-03-04T23:30:43.425Z,70.50
2019-03-04T23:33:15.074Z,69.99
2019-03-04T23:35:47.263Z,69.49
2019-03-04T23:38:19.891Z,68.08
2019-03-04T23:40:52.844Z,68.34
2019-03-04T23:43:24.825Z,67.97
2019-03-04T23:45:56.426Z,65.43
2019-03-04T23:48:29.865Z,63.33
2019-03-04T23:51:02.720Z,63.26
2019-03-04T23:53:34.846Z,61.73
2019-03-04T23:56:07.737Z,61.17
2019-03-04T23:58:40.010Z,61.45
